sensor_id;sensor_type;location;lat;lon;timestamp;P1;durP1;ratioP1;P2;durP2;ratioP2
68140;SDS011;54941;52.220;104.306;2022-12-18T00:01:38;4.82;;;1.85;;
68140;SDS011;54941;52.220;104.306;2022-12-18T00:04:08;2.72;;;1.30;;
68140;SDS011;54941;52.220;104.306;2022-12-18T00:06:43;4.60;;;2.20;;
68140;SDS011;54941;52.220;104.306;2022-12-18T00:09:10;3.55;;;1.80;;
68140;SDS011;54941;52.220;104.306;2022-12-18T00:11:38;4.35;;;1.70;;
68140;SDS011;54941;52.220;104.306;2022-12-18T00:14:04;5.70;;;1.67;;
68140;SDS011;54941;52.220;104.306;2022-12-18T00:16:31;4.32;;;1.30;;
68140;SDS011;54941;52.220;104.306;2022-12-18T00:19:00;3.58;;;1.80;;
68140;SDS011;54941;52.220;104.306;2022-12-18T00:21:27;6.82;;;1.58;;
68140;SDS011;54941;52.220;104.306;2022-12-18T00:23:54;2.97;;;1.50;;
68140;SDS011;54941;52.220;104.306;2022-12-18T00:26:22;4.40;;;1.98;;
68140;SDS011;54941;52.220;104.306;2022-12-18T00:28:51;3.15;;;1.80;;
68140;SDS011;54941;52.220;104.306;2022-12-18T00:31:18;4.43;;;2.05;;
68140;SDS011;54941;52.220;104.306;2022-12-18T00:33:46;4.03;;;1.60;;
68140;SDS011;54941;52.220;104.306;2022-12-18T00:36:13;5.28;;;2.63;;
68140;SDS011;54941;52.220;104.306;2022-12-18T00:38:40;4.60;;;2.75;;
68140;SDS011;54941;52.220;104.306;2022-12-18T00:41:08;7.53;;;3.50;;
68140;SDS011;54941;52.220;104.306;2022-12-18T00:43:35;9.43;;;4.65;;
68140;SDS011;54941;52.220;104.306;2022-12-18T00:46:04;7.25;;;3.63;;
68140;SDS011;54941;52.220;104.306;2022-12-18T00:48:30;10.32;;;2.85;;
68140;SDS011;54941;52.220;104.306;2022-12-18T00:50:57;6.18;;;2.83;;
68140;SDS011;54941;52.220;104.306;2022-12-18T00:53:24;5.38;;;2.25;;
68140;SDS011;54941;52.220;104.306;2022-12-18T00:55:50;5.90;;;2.35;;
68140;SDS011;54941;52.220;104.306;2022-12-18T00:58:17;5.40;;;3.20;;
68140;SDS011;54941;52.220;104.306;2022-12-18T01:00:43;6.60;;;3.10;;
68140;SDS011;54941;52.220;104.306;2022-12-18T01:03:12;7.63;;;3.42;;
68140;SDS011;54941;52.220;104.306;2022-12-18T01:05:39;7.25;;;3.17;;
68140;SDS011;54941;52.220;104.306;2022-12-18T01:08:06;8.82;;;4.30;;
68140;SDS011;54941;52.220;104.306;2022-12-18T01:10:32;7.70;;;3.67;;
68140;SDS011;54941;52.220;104.306;2022-12-18T01:12:58;8.25;;;3.33;;
68140;SDS011;54941;52.220;104.306;2022-12-18T01:15:25;6.13;;;3.15;;
68140;SDS011;54941;52.220;104.306;2022-12-18T01:17:52;7.93;;;3.42;;
68140;SDS011;54941;52.220;104.306;2022-12-18T01:20:20;10.10;;;3.63;;
68140;SDS011;54941;52.220;104.306;2022-12-18T01:22:46;7.72;;;3.75;;
68140;SDS011;54941;52.220;104.306;2022-12-18T01:25:13;8.77;;;3.22;;
68140;SDS011;54941;52.220;104.306;2022-12-18T01:27:39;4.50;;;2.33;;
68140;SDS011;54941;52.220;104.306;2022-12-18T01:30:06;9.65;;;3.20;;
68140;SDS011;54941;52.220;104.306;2022-12-18T01:32:33;6.60;;;2.88;;
68140;SDS011;54941;52.220;104.306;2022-12-18T01:34:59;7.20;;;2.60;;
68140;SDS011;54941;52.220;104.306;2022-12-18T01:37:27;8.27;;;2.85;;
68140;SDS011;54941;52.220;104.306;2022-12-18T01:39:54;8.32;;;3.30;;
68140;SDS011;54941;52.220;104.306;2022-12-18T01:42:20;7.40;;;2.63;;
68140;SDS011;54941;52.220;104.306;2022-12-18T01:44:58;5.57;;;2.45;;
68140;SDS011;54941;52.220;104.306;2022-12-18T01:47:28;7.15;;;2.67;;
68140;SDS011;54941;52.220;104.306;2022-12-18T01:50:01;5.97;;;2.45;;
68140;SDS011;54941;52.220;104.306;2022-12-18T01:52:33;6.35;;;2.60;;
68140;SDS011;54941;52.220;104.306;2022-12-18T01:55:01;10.05;;;3.90;;
68140;SDS011;54941;52.220;104.306;2022-12-18T01:57:30;13.30;;;3.38;;
68140;SDS011;54941;52.220;104.306;2022-12-18T01:59:59;8.95;;;3.55;;
68140;SDS011;54941;52.220;104.306;2022-12-18T02:02:30;13.02;;;3.78;;
68140;SDS011;54941;52.220;104.306;2022-12-18T02:04:57;11.60;;;4.63;;
68140;SDS011;54941;52.220;104.306;2022-12-18T02:07:26;9.65;;;3.85;;
68140;SDS011;54941;52.220;104.306;2022-12-18T02:10:04;13.23;;;6.15;;
68140;SDS011;54941;52.220;104.306;2022-12-18T02:12:42;13.15;;;5.22;;
68140;SDS011;54941;52.220;104.306;2022-12-18T02:15:15;14.73;;;5.32;;
68140;SDS011;54941;52.220;104.306;2022-12-18T02:17:46;7.60;;;4.45;;
68140;SDS011;54941;52.220;104.306;2022-12-18T02:20:17;10.60;;;5.63;;
68140;SDS011;54941;52.220;104.306;2022-12-18T02:22:58;14.25;;;5.20;;
68140;SDS011;54941;52.220;104.306;2022-12-18T02:25:35;22.10;;;8.13;;
68140;SDS011;54941;52.220;104.306;2022-12-18T02:28:15;18.17;;;6.70;;
68140;SDS011;54941;52.220;104.306;2022-12-18T02:30:44;10.85;;;4.70;;
68140;SDS011;54941;52.220;104.306;2022-12-18T02:33:13;14.10;;;5.75;;
68140;SDS011;54941;52.220;104.306;2022-12-18T02:35:41;18.73;;;6.82;;
68140;SDS011;54941;52.220;104.306;2022-12-18T02:38:09;10.82;;;5.32;;
68140;SDS011;54941;52.220;104.306;2022-12-18T02:40:37;11.90;;;5.68;;
68140;SDS011;54941;52.220;104.306;2022-12-18T02:43:09;22.55;;;8.00;;
68140;SDS011;54941;52.220;104.306;2022-12-18T02:45:45;11.07;;;4.75;;
68140;SDS011;54941;52.220;104.306;2022-12-18T02:48:13;11.20;;;4.60;;
68140;SDS011;54941;52.220;104.306;2022-12-18T02:50:41;8.82;;;3.15;;
68140;SDS011;54941;52.220;104.306;2022-12-18T02:53:13;14.40;;;6.55;;
68140;SDS011;54941;52.220;104.306;2022-12-18T02:55:50;18.65;;;7.80;;
68140;SDS011;54941;52.220;104.306;2022-12-18T02:58:26;46.00;;;19.52;;
68140;SDS011;54941;52.220;104.306;2022-12-18T03:01:01;25.70;;;11.40;;
68140;SDS011;54941;52.220;104.306;2022-12-18T03:03:33;21.90;;;8.40;;
68140;SDS011;54941;52.220;104.306;2022-12-18T03:06:06;23.33;;;9.90;;
68140;SDS011;54941;52.220;104.306;2022-12-18T03:08:36;54.97;;;22.50;;
68140;SDS011;54941;52.220;104.306;2022-12-18T03:11:06;45.22;;;18.05;;
68140;SDS011;54941;52.220;104.306;2022-12-18T03:13:35;42.53;;;15.40;;
68140;SDS011;54941;52.220;104.306;2022-12-18T03:16:08;16.63;;;6.43;;
68140;SDS011;54941;52.220;104.306;2022-12-18T03:18:37;13.85;;;7.10;;
68140;SDS011;54941;52.220;104.306;2022-12-18T03:21:08;18.15;;;9.02;;
68140;SDS011;54941;52.220;104.306;2022-12-18T03:23:40;19.83;;;8.60;;
68140;SDS011;54941;52.220;104.306;2022-12-18T03:26:11;14.13;;;7.05;;
68140;SDS011;54941;52.220;104.306;2022-12-18T03:28:44;22.13;;;9.25;;
68140;SDS011;54941;52.220;104.306;2022-12-18T03:31:15;25.30;;;10.50;;
68140;SDS011;54941;52.220;104.306;2022-12-18T03:33:45;22.30;;;9.32;;
68140;SDS011;54941;52.220;104.306;2022-12-18T03:36:16;26.10;;;10.90;;
68140;SDS011;54941;52.220;104.306;2022-12-18T03:38:45;52.50;;;21.58;;
68140;SDS011;54941;52.220;104.306;2022-12-18T03:41:15;38.97;;;17.70;;
68140;SDS011;54941;52.220;104.306;2022-12-18T03:43:47;46.60;;;22.83;;
68140;SDS011;54941;52.220;104.306;2022-12-18T03:46:21;61.20;;;28.52;;
68140;SDS011;54941;52.220;104.306;2022-12-18T03:48:52;54.67;;;23.15;;
68140;SDS011;54941;52.220;104.306;2022-12-18T03:51:26;67.43;;;24.27;;
68140;SDS011;54941;52.220;104.306;2022-12-18T03:53:59;59.58;;;22.15;;
68140;SDS011;54941;52.220;104.306;2022-12-18T03:56:29;59.20;;;19.85;;
68140;SDS011;54941;52.220;104.306;2022-12-18T03:58:59;63.05;;;25.00;;
68140;SDS011;54941;52.220;104.306;2022-12-18T04:01:32;46.08;;;18.30;;
68140;SDS011;54941;52.220;104.306;2022-12-18T04:04:00;31.23;;;12.90;;
68140;SDS011;54941;52.220;104.306;2022-12-18T04:06:28;24.80;;;9.60;;
68140;SDS011;54941;52.220;104.306;2022-12-18T04:08:56;35.83;;;14.52;;
68140;SDS011;54941;52.220;104.306;2022-12-18T04:11:23;46.08;;;19.50;;
68140;SDS011;54941;52.220;104.306;2022-12-18T04:13:50;55.03;;;23.15;;
68140;SDS011;54941;52.220;104.306;2022-12-18T04:16:20;65.32;;;27.65;;
68140;SDS011;54941;52.220;104.306;2022-12-18T04:18:48;49.25;;;20.77;;
68140;SDS011;54941;52.220;104.306;2022-12-18T04:21:14;48.50;;;19.13;;
68140;SDS011;54941;52.220;104.306;2022-12-18T04:23:41;58.47;;;23.70;;
68140;SDS011;54941;52.220;104.306;2022-12-18T04:26:07;55.28;;;21.83;;
68140;SDS011;54941;52.220;104.306;2022-12-18T04:28:34;65.53;;;21.17;;
68140;SDS011;54941;52.220;104.306;2022-12-18T04:31:00;95.93;;;27.83;;
68140;SDS011;54941;52.220;104.306;2022-12-18T04:33:26;65.63;;;20.67;;
68140;SDS011;54941;52.220;104.306;2022-12-18T04:35:54;59.38;;;19.30;;
68140;SDS011;54941;52.220;104.306;2022-12-18T04:38:21;49.25;;;15.25;;
68140;SDS011;54941;52.220;104.306;2022-12-18T04:40:47;56.58;;;19.45;;
68140;SDS011;54941;52.220;104.306;2022-12-18T04:43:14;48.97;;;15.82;;
68140;SDS011;54941;52.220;104.306;2022-12-18T04:45:40;59.85;;;19.52;;
68140;SDS011;54941;52.220;104.306;2022-12-18T04:48:07;40.88;;;15.85;;
68140;SDS011;54941;52.220;104.306;2022-12-18T04:50:33;43.17;;;13.10;;
68140;SDS011;54941;52.220;104.306;2022-12-18T04:53:02;55.90;;;17.08;;
68140;SDS011;54941;52.220;104.306;2022-12-18T04:55:28;46.00;;;16.27;;
68140;SDS011;54941;52.220;104.306;2022-12-18T04:57:54;30.42;;;11.88;;
68140;SDS011;54941;52.220;104.306;2022-12-18T05:00:21;44.17;;;16.63;;
68140;SDS011;54941;52.220;104.306;2022-12-18T05:02:47;36.25;;;13.60;;
68140;SDS011;54941;52.220;104.306;2022-12-18T05:05:14;28.08;;;11.50;;
68140;SDS011;54941;52.220;104.306;2022-12-18T05:07:40;33.50;;;12.15;;
68140;SDS011;54941;52.220;104.306;2022-12-18T05:10:08;31.85;;;14.13;;
68140;SDS011;54941;52.220;104.306;2022-12-18T05:12:35;31.50;;;12.50;;
68140;SDS011;54941;52.220;104.306;2022-12-18T05:15:05;28.67;;;11.95;;
68140;SDS011;54941;52.220;104.306;2022-12-18T05:17:32;33.33;;;12.75;;
68140;SDS011;54941;52.220;104.306;2022-12-18T05:19:58;27.60;;;12.05;;
68140;SDS011;54941;52.220;104.306;2022-12-18T05:22:24;24.83;;;11.52;;
68140;SDS011;54941;52.220;104.306;2022-12-18T05:24:51;29.77;;;13.82;;
68140;SDS011;54941;52.220;104.306;2022-12-18T05:27:19;23.10;;;11.45;;
68140;SDS011;54941;52.220;104.306;2022-12-18T05:29:45;30.58;;;13.27;;
68140;SDS011;54941;52.220;104.306;2022-12-18T05:32:12;29.45;;;13.02;;
68140;SDS011;54941;52.220;104.306;2022-12-18T05:34:38;35.85;;;14.52;;
68140;SDS011;54941;52.220;104.306;2022-12-18T05:37:05;27.70;;;12.18;;
68140;SDS011;54941;52.220;104.306;2022-12-18T05:39:31;40.35;;;15.00;;
68140;SDS011;54941;52.220;104.306;2022-12-18T05:41:57;36.63;;;13.70;;
68140;SDS011;54941;52.220;104.306;2022-12-18T05:44:25;20.58;;;9.35;;
68140;SDS011;54941;52.220;104.306;2022-12-18T05:46:52;21.02;;;9.65;;
68140;SDS011;54941;52.220;104.306;2022-12-18T05:49:18;22.38;;;9.32;;
68140;SDS011;54941;52.220;104.306;2022-12-18T05:51:45;16.98;;;8.40;;
68140;SDS011;54941;52.220;104.306;2022-12-18T05:54:11;18.20;;;7.18;;
68140;SDS011;54941;52.220;104.306;2022-12-18T05:56:37;16.80;;;8.00;;
68140;SDS011;54941;52.220;104.306;2022-12-18T05:59:04;16.17;;;6.43;;
68140;SDS011;54941;52.220;104.306;2022-12-18T06:01:32;18.60;;;7.70;;
68140;SDS011;54941;52.220;104.306;2022-12-18T06:03:58;13.95;;;5.75;;
68140;SDS011;54941;52.220;104.306;2022-12-18T06:06:25;18.27;;;7.55;;
68140;SDS011;54941;52.220;104.306;2022-12-18T06:08:52;21.73;;;7.40;;
68140;SDS011;54941;52.220;104.306;2022-12-18T06:11:20;23.02;;;8.02;;
68140;SDS011;54941;52.220;104.306;2022-12-18T06:13:49;18.55;;;7.70;;
68140;SDS011;54941;52.220;104.306;2022-12-18T06:16:17;16.15;;;7.38;;
68140;SDS011;54941;52.220;104.306;2022-12-18T06:18:47;16.67;;;7.10;;
68140;SDS011;54941;52.220;104.306;2022-12-18T06:21:13;12.63;;;6.43;;
68140;SDS011;54941;52.220;104.306;2022-12-18T06:23:39;15.75;;;6.70;;
68140;SDS011;54941;52.220;104.306;2022-12-18T06:26:06;7.93;;;3.28;;
68140;SDS011;54941;52.220;104.306;2022-12-18T06:28:34;12.32;;;4.30;;
68140;SDS011;54941;52.220;104.306;2022-12-18T06:31:00;11.77;;;5.28;;
68140;SDS011;54941;52.220;104.306;2022-12-18T06:33:28;13.75;;;4.60;;
68140;SDS011;54941;52.220;104.306;2022-12-18T06:35:58;12.45;;;4.25;;
68140;SDS011;54941;52.220;104.306;2022-12-18T06:38:26;9.00;;;3.80;;
68140;SDS011;54941;52.220;104.306;2022-12-18T06:40:52;10.80;;;4.60;;
68140;SDS011;54941;52.220;104.306;2022-12-18T06:43:19;11.88;;;4.78;;
68140;SDS011;54941;52.220;104.306;2022-12-18T06:45:45;14.80;;;4.07;;
68140;SDS011;54941;52.220;104.306;2022-12-18T06:48:11;12.05;;;4.28;;
68140;SDS011;54941;52.220;104.306;2022-12-18T06:50:41;13.82;;;5.20;;
68140;SDS011;54941;52.220;104.306;2022-12-18T06:55:37;7.15;;;3.20;;
68140;SDS011;54941;52.220;104.306;2022-12-18T06:58:04;11.77;;;3.92;;
68140;SDS011;54941;52.220;104.306;2022-12-18T07:00:30;9.13;;;4.25;;
68140;SDS011;54941;52.220;104.306;2022-12-18T07:02:56;7.68;;;3.22;;
68140;SDS011;54941;52.220;104.306;2022-12-18T07:05:23;12.35;;;4.32;;
68140;SDS011;54941;52.220;104.306;2022-12-18T07:07:49;9.52;;;4.20;;
68140;SDS011;54941;52.220;104.306;2022-12-18T07:10:17;10.68;;;3.28;;
68140;SDS011;54941;52.220;104.306;2022-12-18T07:12:44;10.90;;;4.38;;
68140;SDS011;54941;52.220;104.306;2022-12-18T07:15:10;6.25;;;2.50;;
68140;SDS011;54941;52.220;104.306;2022-12-18T07:17:36;8.93;;;3.25;;
68140;SDS011;54941;52.220;104.306;2022-12-18T07:20:03;5.50;;;3.42;;
68140;SDS011;54941;52.220;104.306;2022-12-18T07:22:30;8.48;;;2.85;;
68140;SDS011;54941;52.220;104.306;2022-12-18T07:24:56;10.18;;;3.22;;
68140;SDS011;54941;52.220;104.306;2022-12-18T07:27:24;9.05;;;3.13;;
68140;SDS011;54941;52.220;104.306;2022-12-18T07:29:51;8.15;;;2.88;;
68140;SDS011;54941;52.220;104.306;2022-12-18T07:32:17;7.88;;;3.75;;
68140;SDS011;54941;52.220;104.306;2022-12-18T07:34:43;7.18;;;3.25;;
68140;SDS011;54941;52.220;104.306;2022-12-18T07:37:10;8.23;;;4.10;;
68140;SDS011;54941;52.220;104.306;2022-12-18T07:39:36;8.15;;;3.40;;
68140;SDS011;54941;52.220;104.306;2022-12-18T07:42:03;9.07;;;3.45;;
68140;SDS011;54941;52.220;104.306;2022-12-18T07:44:31;7.35;;;3.08;;
68140;SDS011;54941;52.220;104.306;2022-12-18T07:46:57;6.75;;;2.80;;
68140;SDS011;54941;52.220;104.306;2022-12-18T07:49:23;5.95;;;2.92;;
68140;SDS011;54941;52.220;104.306;2022-12-18T07:51:50;12.43;;;3.92;;
68140;SDS011;54941;52.220;104.306;2022-12-18T07:54:19;7.30;;;3.17;;
68140;SDS011;54941;52.220;104.306;2022-12-18T07:56:45;10.18;;;4.18;;
68140;SDS011;54941;52.220;104.306;2022-12-18T07:59:12;11.60;;;4.05;;
68140;SDS011;54941;52.220;104.306;2022-12-18T08:01:39;12.52;;;5.10;;
68140;SDS011;54941;52.220;104.306;2022-12-18T08:04:06;14.18;;;5.25;;
68140;SDS011;54941;52.220;104.306;2022-12-18T08:06:32;15.40;;;5.88;;
68140;SDS011;54941;52.220;104.306;2022-12-18T08:08:59;12.93;;;4.30;;
68140;SDS011;54941;52.220;104.306;2022-12-18T08:11:28;11.07;;;3.88;;
68140;SDS011;54941;52.220;104.306;2022-12-18T08:13:54;13.57;;;4.55;;
68140;SDS011;54941;52.220;104.306;2022-12-18T08:16:21;9.07;;;4.72;;
68140;SDS011;54941;52.220;104.306;2022-12-18T08:18:51;11.40;;;3.97;;
68140;SDS011;54941;52.220;104.306;2022-12-18T08:21:18;5.68;;;3.40;;
68140;SDS011;54941;52.220;104.306;2022-12-18T08:23:46;9.98;;;4.35;;
68140;SDS011;54941;52.220;104.306;2022-12-18T08:26:12;12.65;;;5.78;;
68140;SDS011;54941;52.220;104.306;2022-12-18T08:28:39;14.55;;;6.93;;
68140;SDS011;54941;52.220;104.306;2022-12-18T08:31:06;9.38;;;3.60;;
68140;SDS011;54941;52.220;104.306;2022-12-18T08:33:33;8.05;;;3.50;;
68140;SDS011;54941;52.220;104.306;2022-12-18T08:36:02;12.27;;;4.28;;
68140;SDS011;54941;52.220;104.306;2022-12-18T08:38:29;10.07;;;3.50;;
68140;SDS011;54941;52.220;104.306;2022-12-18T08:40:58;11.07;;;4.20;;
68140;SDS011;54941;52.220;104.306;2022-12-18T08:43:24;8.13;;;3.65;;
68140;SDS011;54941;52.220;104.306;2022-12-18T08:45:51;12.70;;;5.95;;
68140;SDS011;54941;52.220;104.306;2022-12-18T08:48:17;20.05;;;9.93;;
68140;SDS011;54941;52.220;104.306;2022-12-18T08:50:44;12.60;;;6.78;;
68140;SDS011;54941;52.220;104.306;2022-12-18T08:53:24;14.07;;;7.13;;
68140;SDS011;54941;52.220;104.306;2022-12-18T08:55:51;19.33;;;8.85;;
68140;SDS011;54941;52.220;104.306;2022-12-18T08:58:17;17.02;;;6.75;;
68140;SDS011;54941;52.220;104.306;2022-12-18T09:00:44;11.10;;;5.00;;
68140;SDS011;54941;52.220;104.306;2022-12-18T09:03:11;12.70;;;4.75;;
68140;SDS011;54941;52.220;104.306;2022-12-18T09:05:38;19.23;;;8.75;;
68140;SDS011;54941;52.220;104.306;2022-12-18T09:08:05;14.55;;;6.25;;
68140;SDS011;54941;52.220;104.306;2022-12-18T09:10:33;10.48;;;4.57;;
68140;SDS011;54941;52.220;104.306;2022-12-18T09:12:59;13.55;;;5.05;;
68140;SDS011;54941;52.220;104.306;2022-12-18T09:15:26;15.02;;;6.20;;
68140;SDS011;54941;52.220;104.306;2022-12-18T09:17:52;12.73;;;5.50;;
68140;SDS011;54941;52.220;104.306;2022-12-18T09:20:19;14.38;;;6.32;;
68140;SDS011;54941;52.220;104.306;2022-12-18T09:22:45;16.98;;;6.53;;
68140;SDS011;54941;52.220;104.306;2022-12-18T09:25:11;14.90;;;6.75;;
68140;SDS011;54941;52.220;104.306;2022-12-18T09:27:40;23.55;;;8.38;;
68140;SDS011;54941;52.220;104.306;2022-12-18T09:30:07;16.70;;;7.25;;
68140;SDS011;54941;52.220;104.306;2022-12-18T09:32:34;15.77;;;7.00;;
68140;SDS011;54941;52.220;104.306;2022-12-18T09:35:00;13.02;;;6.05;;
68140;SDS011;54941;52.220;104.306;2022-12-18T09:37:27;11.82;;;5.80;;
68140;SDS011;54941;52.220;104.306;2022-12-18T09:39:53;14.07;;;7.13;;
68140;SDS011;54941;52.220;104.306;2022-12-18T09:42:20;25.08;;;8.43;;
68140;SDS011;54941;52.220;104.306;2022-12-18T09:44:50;19.50;;;7.15;;
68140;SDS011;54941;52.220;104.306;2022-12-18T09:47:19;19.70;;;8.57;;
68140;SDS011;54941;52.220;104.306;2022-12-18T09:49:48;23.67;;;8.05;;
68140;SDS011;54941;52.220;104.306;2022-12-18T09:52:19;18.25;;;8.15;;
68140;SDS011;54941;52.220;104.306;2022-12-18T09:54:50;21.00;;;8.00;;
68140;SDS011;54941;52.220;104.306;2022-12-18T09:57:21;15.85;;;7.88;;
68140;SDS011;54941;52.220;104.306;2022-12-18T09:59:51;16.38;;;7.82;;
68140;SDS011;54941;52.220;104.306;2022-12-18T10:02:21;19.17;;;8.68;;
68140;SDS011;54941;52.220;104.306;2022-12-18T10:04:53;25.70;;;11.13;;
68140;SDS011;54941;52.220;104.306;2022-12-18T10:07:40;18.65;;;9.02;;
68140;SDS011;54941;52.220;104.306;2022-12-18T10:10:15;21.88;;;9.18;;
68140;SDS011;54941;52.220;104.306;2022-12-18T10:12:49;23.88;;;10.05;;
68140;SDS011;54941;52.220;104.306;2022-12-18T10:15:26;19.33;;;9.55;;
68140;SDS011;54941;52.220;104.306;2022-12-18T10:18:02;24.77;;;11.52;;
68140;SDS011;54941;52.220;104.306;2022-12-18T10:20:41;22.35;;;10.60;;
68140;SDS011;54941;52.220;104.306;2022-12-18T10:23:12;21.85;;;11.30;;
68140;SDS011;54941;52.220;104.306;2022-12-18T10:25:50;20.52;;;9.02;;
68140;SDS011;54941;52.220;104.306;2022-12-18T10:28:21;23.60;;;9.70;;
68140;SDS011;54941;52.220;104.306;2022-12-18T10:30:52;22.38;;;8.82;;
68140;SDS011;54941;52.220;104.306;2022-12-18T10:33:19;22.95;;;9.23;;
68140;SDS011;54941;52.220;104.306;2022-12-18T10:35:47;22.98;;;10.07;;
68140;SDS011;54941;52.220;104.306;2022-12-18T10:38:22;20.00;;;9.55;;
68140;SDS011;54941;52.220;104.306;2022-12-18T10:40:51;20.48;;;8.20;;
68140;SDS011;54941;52.220;104.306;2022-12-18T10:43:20;27.55;;;11.93;;
68140;SDS011;54941;52.220;104.306;2022-12-18T10:46:01;26.23;;;9.93;;
68140;SDS011;54941;52.220;104.306;2022-12-18T10:48:40;21.10;;;9.23;;
68140;SDS011;54941;52.220;104.306;2022-12-18T10:51:19;24.00;;;10.10;;
68140;SDS011;54941;52.220;104.306;2022-12-18T10:53:51;21.00;;;10.18;;
68140;SDS011;54941;52.220;104.306;2022-12-18T10:56:19;28.02;;;11.32;;
68140;SDS011;54941;52.220;104.306;2022-12-18T10:58:54;26.58;;;11.65;;
68140;SDS011;54941;52.220;104.306;2022-12-18T11:01:24;23.83;;;9.38;;
68140;SDS011;54941;52.220;104.306;2022-12-18T11:04:00;25.23;;;11.20;;
68140;SDS011;54941;52.220;104.306;2022-12-18T11:06:33;31.92;;;14.00;;
68140;SDS011;54941;52.220;104.306;2022-12-18T11:08:59;23.85;;;11.45;;
68140;SDS011;54941;52.220;104.306;2022-12-18T11:11:27;24.40;;;10.73;;
68140;SDS011;54941;52.220;104.306;2022-12-18T11:13:58;26.85;;;11.13;;
68140;SDS011;54941;52.220;104.306;2022-12-18T11:16:30;22.98;;;12.50;;
68140;SDS011;54941;52.220;104.306;2022-12-18T11:19:10;25.48;;;9.80;;
68140;SDS011;54941;52.220;104.306;2022-12-18T11:21:45;22.25;;;11.00;;
68140;SDS011;54941;52.220;104.306;2022-12-18T11:24:17;26.10;;;10.45;;
68140;SDS011;54941;52.220;104.306;2022-12-18T11:26:47;24.45;;;12.20;;
68140;SDS011;54941;52.220;104.306;2022-12-18T11:29:16;20.33;;;10.90;;
68140;SDS011;54941;52.220;104.306;2022-12-18T11:31:45;32.15;;;12.27;;
68140;SDS011;54941;52.220;104.306;2022-12-18T11:34:12;22.17;;;10.10;;
68140;SDS011;54941;52.220;104.306;2022-12-18T11:36:50;30.70;;;12.13;;
68140;SDS011;54941;52.220;104.306;2022-12-18T11:39:18;27.40;;;13.05;;
68140;SDS011;54941;52.220;104.306;2022-12-18T11:41:51;26.30;;;11.38;;
68140;SDS011;54941;52.220;104.306;2022-12-18T11:44:22;25.58;;;11.38;;
68140;SDS011;54941;52.220;104.306;2022-12-18T11:46:55;21.52;;;11.25;;
68140;SDS011;54941;52.220;104.306;2022-12-18T11:49:27;29.90;;;13.60;;
68140;SDS011;54941;52.220;104.306;2022-12-18T11:51:58;25.95;;;10.52;;
68140;SDS011;54941;52.220;104.306;2022-12-18T11:54:30;19.58;;;9.05;;
68140;SDS011;54941;52.220;104.306;2022-12-18T11:56:58;21.70;;;9.25;;
68140;SDS011;54941;52.220;104.306;2022-12-18T11:59:35;25.02;;;12.07;;
68140;SDS011;54941;52.220;104.306;2022-12-18T12:02:15;25.70;;;10.90;;
68140;SDS011;54941;52.220;104.306;2022-12-18T12:07:54;23.05;;;10.65;;
68140;SDS011;54941;52.220;104.306;2022-12-18T12:10:30;19.55;;;10.10;;
68140;SDS011;54941;52.220;104.306;2022-12-18T12:13:12;26.58;;;11.38;;
68140;SDS011;54941;52.220;104.306;2022-12-18T12:15:51;24.27;;;11.07;;
68140;SDS011;54941;52.220;104.306;2022-12-18T12:18:28;26.33;;;12.45;;
68140;SDS011;54941;52.220;104.306;2022-12-18T12:21:04;27.23;;;12.02;;
68140;SDS011;54941;52.220;104.306;2022-12-18T12:23:37;25.35;;;12.90;;
68140;SDS011;54941;52.220;104.306;2022-12-18T12:26:14;25.58;;;11.65;;
68140;SDS011;54941;52.220;104.306;2022-12-18T12:28:54;24.65;;;11.95;;
68140;SDS011;54941;52.220;104.306;2022-12-18T12:31:29;26.90;;;11.27;;
68140;SDS011;54941;52.220;104.306;2022-12-18T12:34:07;25.10;;;10.85;;
68140;SDS011;54941;52.220;104.306;2022-12-18T12:36:45;23.48;;;10.63;;
68140;SDS011;54941;52.220;104.306;2022-12-18T12:39:25;28.73;;;15.18;;
68140;SDS011;54941;52.220;104.306;2022-12-18T12:41:56;25.50;;;10.90;;
68140;SDS011;54941;52.220;104.306;2022-12-18T12:44:23;24.73;;;10.88;;
68140;SDS011;54941;52.220;104.306;2022-12-18T12:46:55;30.23;;;13.65;;
68140;SDS011;54941;52.220;104.306;2022-12-18T12:49:27;25.58;;;10.90;;
68140;SDS011;54941;52.220;104.306;2022-12-18T12:52:03;22.70;;;9.60;;
68140;SDS011;54941;52.220;104.306;2022-12-18T12:54:33;21.98;;;9.10;;
68140;SDS011;54941;52.220;104.306;2022-12-18T12:57:01;26.52;;;11.60;;
68140;SDS011;54941;52.220;104.306;2022-12-18T12:59:34;32.05;;;14.85;;
68140;SDS011;54941;52.220;104.306;2022-12-18T13:02:14;22.30;;;10.75;;
68140;SDS011;54941;52.220;104.306;2022-12-18T13:04:49;19.98;;;9.25;;
68140;SDS011;54941;52.220;104.306;2022-12-18T13:07:23;26.02;;;11.48;;
68140;SDS011;54941;52.220;104.306;2022-12-18T13:12:56;23.25;;;10.65;;
68140;SDS011;54941;52.220;104.306;2022-12-18T13:15:25;20.27;;;10.32;;
68140;SDS011;54941;52.220;104.306;2022-12-18T13:18:03;28.65;;;11.30;;
68140;SDS011;54941;52.220;104.306;2022-12-18T13:20:34;27.08;;;12.50;;
68140;SDS011;54941;52.220;104.306;2022-12-18T13:23:04;24.63;;;10.95;;
68140;SDS011;54941;52.220;104.306;2022-12-18T13:25:51;56.45;;;19.13;;
68140;SDS011;54941;52.220;104.306;2022-12-18T13:28:20;56.75;;;20.25;;
68140;SDS011;54941;52.220;104.306;2022-12-18T13:30:52;36.97;;;16.48;;
68140;SDS011;54941;52.220;104.306;2022-12-18T13:36:16;33.33;;;13.57;;
68140;SDS011;54941;52.220;104.306;2022-12-18T13:41:46;28.88;;;11.65;;
68140;SDS011;54941;52.220;104.306;2022-12-18T13:44:20;25.58;;;11.88;;
68140;SDS011;54941;52.220;104.306;2022-12-18T13:46:50;34.65;;;14.48;;
68140;SDS011;54941;52.220;104.306;2022-12-18T13:49:20;30.73;;;12.60;;
68140;SDS011;54941;52.220;104.306;2022-12-18T13:51:51;31.40;;;13.52;;
68140;SDS011;54941;52.220;104.306;2022-12-18T13:54:19;35.53;;;14.18;;
68140;SDS011;54941;52.220;104.306;2022-12-18T13:56:52;31.52;;;13.43;;
68140;SDS011;54941;52.220;104.306;2022-12-18T13:59:19;38.85;;;14.90;;
68140;SDS011;54941;52.220;104.306;2022-12-18T14:01:48;23.25;;;11.38;;
68140;SDS011;54941;52.220;104.306;2022-12-18T14:04:18;26.73;;;11.40;;
68140;SDS011;54941;52.220;104.306;2022-12-18T14:06:47;25.38;;;10.05;;
68140;SDS011;54941;52.220;104.306;2022-12-18T14:09:19;30.35;;;12.15;;
68140;SDS011;54941;52.220;104.306;2022-12-18T14:11:49;25.92;;;11.32;;
68140;SDS011;54941;52.220;104.306;2022-12-18T14:14:17;31.63;;;12.40;;
68140;SDS011;54941;52.220;104.306;2022-12-18T14:16:45;31.17;;;12.68;;
68140;SDS011;54941;52.220;104.306;2022-12-18T14:19:13;27.83;;;12.05;;
68140;SDS011;54941;52.220;104.306;2022-12-18T14:21:45;31.52;;;13.65;;
68140;SDS011;54941;52.220;104.306;2022-12-18T14:24:15;37.42;;;16.05;;
68140;SDS011;54941;52.220;104.306;2022-12-18T14:26:43;38.22;;;15.05;;
68140;SDS011;54941;52.220;104.306;2022-12-18T14:29:20;34.13;;;14.18;;
68140;SDS011;54941;52.220;104.306;2022-12-18T14:32:05;39.47;;;15.93;;
68140;SDS011;54941;52.220;104.306;2022-12-18T14:34:32;35.45;;;16.58;;